createdAt,value
2022-10-22T00:01:10.648Z,6.72
2022-10-22T00:03:40.634Z,6.70
2022-10-22T00:06:08.958Z,6.67
2022-10-22T00:08:37.042Z,6.64
2022-10-22T00:11:14.206Z,6.59
2022-10-22T00:13:43.280Z,6.55
2022-10-22T00:16:11.887Z,6.51
2022-10-22T00:18:40.869Z,6.48
2022-10-22T00:21:08.990Z,6.44
2022-10-22T00:23:40.026Z,6.41
2022-10-22T00:26:08.147Z,6.38
2022-10-22T00:28:36.786Z,6.35
2022-10-22T00:31:05.737Z,6.32
2022-10-22T00:33:33.903Z,6.29
2022-10-22T00:36:01.829Z,6.25
2022-10-22T00:38:29.851Z,6.22
2022-10-22T00:40:57.975Z,6.18
2022-10-22T00:43:27.414Z,6.14
2022-10-22T00:45:55.311Z,6.10
2022-10-22T00:48:29.779Z,6.06
2022-10-22T00:51:01.421Z,6.03
2022-10-22T00:53:37.511Z,6.00
2022-10-22T00:56:06.345Z,5.97
2022-10-22T00:58:37.659Z,5.96
2022-10-22T01:01:09.640Z,5.93
2022-10-22T01:03:37.818Z,5.90
2022-10-22T01:06:06.528Z,5.86
2022-10-22T01:09:20.588Z,5.82
2022-10-22T01:12:10.657Z,5.79
2022-10-22T01:15:10.991Z,5.74
2022-10-22T01:17:43.533Z,5.71
2022-10-22T01:20:11.596Z,5.69
2022-10-22T01:22:46.471Z,5.67
2022-10-22T01:25:30.706Z,5.64
2022-10-22T01:28:21.308Z,5.62
2022-10-22T01:30:53.451Z,5.58
2022-10-22T01:33:25.117Z,5.56
2022-10-22T01:35:53.912Z,5.54
2022-10-22T01:38:25.054Z,5.51
2022-10-22T01:40:54.653Z,5.49
2022-10-22T01:43:22.789Z,5.48
2022-10-22T01:45:54.036Z,5.47
2022-10-22T01:48:27.772Z,5.46
2022-10-22T01:51:14.492Z,5.43
2022-10-22T01:53:56.082Z,5.41
2022-10-22T01:56:30.108Z,5.39
2022-10-22T01:59:22.541Z,5.36
2022-10-22T02:02:02.009Z,5.34
2022-10-22T02:04:45.046Z,5.32
2022-10-22T02:07:15.246Z,5.30
2022-10-22T02:09:44.736Z,5.28
2022-10-22T02:12:14.092Z,5.26
2022-10-22T02:14:44.235Z,5.25
2022-10-22T02:17:18.359Z,5.23
2022-10-22T02:20:08.485Z,5.21
2022-10-22T02:22:37.730Z,5.19
2022-10-22T02:25:06.758Z,5.17
2022-10-22T02:27:45.512Z,5.17
2022-10-22T02:30:20.303Z,5.17
2022-10-22T02:33:08.227Z,5.16
2022-10-22T02:35:37.491Z,5.15
2022-10-22T02:38:06.234Z,5.13
2022-10-22T02:40:34.227Z,5.12
2022-10-22T02:43:05.125Z,5.10
2022-10-22T02:45:34.743Z,5.09
2022-10-22T02:48:03.290Z,5.09
2022-10-22T02:50:31.868Z,5.08
2022-10-22T02:53:00.040Z,5.07
2022-10-22T02:55:28.261Z,5.06
2022-10-22T02:57:56.152Z,5.07
2022-10-22T03:00:24.196Z,5.06
2022-10-22T03:02:52.383Z,5.06
2022-10-22T03:05:20.496Z,5.05
2022-10-22T03:07:48.336Z,5.05
2022-10-22T03:10:16.402Z,5.03
2022-10-22T03:12:44.470Z,5.01
2022-10-22T03:15:12.425Z,5.00
2022-10-22T03:17:40.773Z,4.98
2022-10-22T03:20:09.281Z,4.96
2022-10-22T03:22:41.037Z,4.94
2022-10-22T03:25:13.936Z,4.92
2022-10-22T03:27:42.873Z,4.91
2022-10-22T03:30:11.957Z,4.89
2022-10-22T03:32:40.171Z,4.86
2022-10-22T03:35:08.469Z,4.85
2022-10-22T03:37:37.956Z,4.82
2022-10-22T03:40:08.246Z,4.80
2022-10-22T03:42:36.112Z,4.78
2022-10-22T03:45:05.363Z,4.76
2022-10-22T03:47:33.366Z,4.75
2022-10-22T03:50:01.560Z,4.73
2022-10-22T03:52:35.213Z,4.71
2022-10-22T03:55:04.131Z,4.68
2022-10-22T03:57:32.994Z,4.66
2022-10-22T04:00:00.982Z,4.65
2022-10-22T04:02:28.999Z,4.63
2022-10-22T04:04:56.929Z,4.61
2022-10-22T04:07:24.975Z,4.58
2022-10-22T04:09:53.025Z,4.56
2022-10-22T04:12:20.904Z,4.54
2022-10-22T04:14:48.836Z,4.52
2022-10-22T04:17:17.142Z,4.51
2022-10-22T04:19:45.217Z,4.50
2022-10-22T04:22:13.071Z,4.49
2022-10-22T04:24:41.035Z,4.46
2022-10-22T04:27:09.131Z,4.45
2022-10-22T04:29:37.249Z,4.43
2022-10-22T04:32:05.435Z,4.42
2022-10-22T04:34:33.493Z,4.41
2022-10-22T04:37:01.577Z,4.41
2022-10-22T04:39:29.383Z,4.40
2022-10-22T04:41:57.506Z,4.37
2022-10-22T04:44:25.542Z,4.36
2022-10-22T04:46:53.703Z,4.34
2022-10-22T04:49:21.726Z,4.33
2022-10-22T04:51:49.667Z,4.32
2022-10-22T04:54:17.667Z,4.31
2022-10-22T04:56:45.681Z,4.30
2022-10-22T04:59:13.917Z,4.29
2022-10-22T05:01:44.602Z,4.27
2022-10-22T05:04:15.944Z,4.24
2022-10-22T05:06:44.572Z,4.22
2022-10-22T05:09:18.622Z,4.21
2022-10-22T05:11:49.218Z,4.19
2022-10-22T05:14:23.223Z,4.19
2022-10-22T05:16:52.449Z,4.20
2022-10-22T05:19:27.457Z,4.20
2022-10-22T05:21:58.148Z,4.21
2022-10-22T05:24:27.685Z,4.23
2022-10-22T05:26:57.962Z,4.28
2022-10-22T05:29:26.437Z,4.31
2022-10-22T05:31:54.649Z,4.34
2022-10-22T05:34:22.810Z,4.38
2022-10-22T05:36:50.997Z,4.40
2022-10-22T05:39:18.833Z,4.44
2022-10-22T05:41:46.778Z,4.47
2022-10-22T05:44:14.758Z,4.52
2022-10-22T05:46:43.578Z,4.58
2022-10-22T05:49:15.151Z,4.63
2022-10-22T05:51:43.126Z,4.69
2022-10-22T05:54:19.802Z,4.74
2022-10-22T05:56:48.049Z,4.78
2022-10-22T05:59:16.420Z,4.83
2022-10-22T06:01:44.563Z,4.88
2022-10-22T06:04:13.714Z,4.94
2022-10-22T06:06:51.074Z,5.01
2022-10-22T06:09:34.281Z,5.08
2022-10-22T06:12:03.036Z,5.20
2022-10-22T06:14:32.707Z,5.36
2022-10-22T06:17:00.846Z,5.54
2022-10-22T06:19:31.211Z,5.75
2022-10-22T06:21:59.401Z,5.97
2022-10-22T06:24:27.542Z,6.19
2022-10-22T06:26:55.554Z,6.42
2022-10-22T06:29:23.805Z,6.66
2022-10-22T06:31:51.734Z,6.92
2022-10-22T06:34:19.992Z,7.21
2022-10-22T06:36:48.173Z,7.50
2022-10-22T06:39:17.713Z,7.85
2022-10-22T06:41:46.037Z,8.14
2022-10-22T06:44:18.552Z,8.41
2022-10-22T06:46:52.165Z,8.71
2022-10-22T06:49:21.338Z,9.01
2022-10-22T06:51:53.819Z,9.29
2022-10-22T06:54:23.256Z,9.58
2022-10-22T06:56:51.423Z,9.87
2022-10-22T06:59:19.393Z,10.12
2022-10-22T07:01:47.321Z,10.36
2022-10-22T07:04:15.704Z,10.63
2022-10-22T07:06:43.856Z,10.89
2022-10-22T07:09:12.057Z,11.15
2022-10-22T07:11:43.255Z,11.37
2022-10-22T07:14:11.996Z,11.59
2022-10-22T07:16:43.153Z,11.81
2022-10-22T07:19:11.608Z,12.04
2022-10-22T07:21:39.816Z,12.27
2022-10-22T07:24:08.195Z,12.47
2022-10-22T07:26:37.054Z,12.65
2022-10-22T07:29:05.706Z,12.82
2022-10-22T07:31:33.777Z,12.99
2022-10-22T07:34:01.892Z,13.14
2022-10-22T07:36:29.826Z,13.29
2022-10-22T07:38:59.231Z,13.41
2022-10-22T07:41:29.189Z,13.54
2022-10-22T07:43:58.303Z,13.60
2022-10-22T07:46:27.202Z,13.67
2022-10-22T07:48:55.225Z,13.80
2022-10-22T07:51:23.391Z,13.91
2022-10-22T07:53:51.387Z,13.96
2022-10-22T07:56:19.322Z,14.01
2022-10-22T07:58:47.307Z,14.11
2022-10-22T08:01:15.551Z,14.26
2022-10-22T08:03:43.480Z,14.35
2022-10-22T08:06:14.584Z,14.36
2022-10-22T08:08:43.717Z,14.41
2022-10-22T08:11:11.872Z,14.51
2022-10-22T08:13:44.880Z,14.66
2022-10-22T08:16:14.385Z,14.83
2022-10-22T08:18:43.036Z,14.93
2022-10-22T08:21:13.043Z,15.08
2022-10-22T08:23:41.250Z,15.22
2022-10-22T08:26:10.466Z,15.34
2022-10-22T08:28:38.650Z,15.44
2022-10-22T08:31:08.271Z,15.57
2022-10-22T08:33:37.070Z,15.71
2022-10-22T08:36:06.096Z,15.90
2022-10-22T08:38:35.395Z,16.07
2022-10-22T08:41:09.900Z,16.12
2022-10-22T08:44:00.726Z,16.15
2022-10-22T08:46:34.130Z,16.15
2022-10-22T08:49:04.755Z,16.04
2022-10-22T08:51:40.520Z,15.88
2022-10-22T08:54:22.761Z,15.72
2022-10-22T08:57:13.486Z,15.56
2022-10-22T08:59:46.970Z,15.44
2022-10-22T09:02:53.947Z,15.34
2022-10-22T09:05:56.249Z,15.29
2022-10-22T09:08:24.748Z,15.25
2022-10-22T09:10:58.918Z,15.24
2022-10-22T09:13:26.983Z,15.34
2022-10-22T09:16:00.118Z,15.46
2022-10-22T09:18:40.551Z,15.61
2022-10-22T09:21:32.665Z,15.81
2022-10-22T09:24:32.283Z,16.08
2022-10-22T09:27:07.308Z,16.37
2022-10-22T09:29:35.307Z,16.64
2022-10-22T09:32:03.660Z,16.91
2022-10-22T09:34:32.698Z,17.18
2022-10-22T09:37:07.355Z,17.47
2022-10-22T09:39:37.974Z,17.70
2022-10-22T09:42:07.404Z,17.92
2022-10-22T09:44:37.511Z,18.07
2022-10-22T09:47:07.999Z,18.16
2022-10-22T09:49:36.816Z,18.27
2022-10-22T09:52:26.466Z,18.41
2022-10-22T09:54:54.342Z,18.47
2022-10-22T09:57:22.558Z,18.51
2022-10-22T09:59:51.530Z,18.49
2022-10-22T10:02:37.617Z,18.48
2022-10-22T10:05:07.882Z,18.57
2022-10-22T10:07:36.674Z,18.71
2022-10-22T10:10:19.654Z,18.92
2022-10-22T10:13:01.548Z,19.20
2022-10-22T10:15:45.862Z,19.51
2022-10-22T10:18:22.704Z,19.73
2022-10-22T10:21:17.205Z,19.85
2022-10-22T10:24:24.909Z,19.93
2022-10-22T10:27:07.527Z,20.13
2022-10-22T10:29:41.732Z,20.25
2022-10-22T10:32:48.286Z,20.29
2022-10-22T10:35:31.446Z,20.26
2022-10-22T10:38:20.069Z,20.27
2022-10-22T10:41:08.517Z,20.25
2022-10-22T10:43:36.404Z,20.28
2022-10-22T10:46:23.587Z,20.36
2022-10-22T10:49:03.372Z,20.43
2022-10-22T10:51:43.571Z,20.54
2022-10-22T10:54:27.673Z,20.68
2022-10-22T10:57:06.859Z,20.88
2022-10-22T10:59:43.664Z,21.07
2022-10-22T11:02:53.635Z,21.29
2022-10-22T11:05:32.525Z,21.55
2022-10-22T11:08:11.475Z,21.77
2022-10-22T11:10:46.873Z,22.01
2022-10-22T11:13:34.325Z,22.22
2022-10-22T11:16:15.731Z,22.43
2022-10-22T11:19:15.540Z,22.63
2022-10-22T11:21:57.196Z,22.78
2022-10-22T11:24:52.124Z,22.91
2022-10-22T11:27:31.841Z,23.10
2022-10-22T11:30:05.248Z,23.28
2022-10-22T11:32:33.809Z,23.41
2022-10-22T11:35:05.747Z,23.56
2022-10-22T11:37:39.125Z,23.68
2022-10-22T11:40:29.126Z,23.69
2022-10-22T11:42:59.584Z,23.47
2022-10-22T11:45:31.183Z,23.18
2022-10-22T11:48:06.939Z,22.99
2022-10-22T11:50:56.716Z,22.89
2022-10-22T11:53:32.073Z,22.79
2022-10-22T11:56:13.628Z,22.70
2022-10-22T11:58:50.722Z,22.78
2022-10-22T12:01:40.581Z,22.87
2022-10-22T12:04:22.182Z,22.95
2022-10-22T12:07:01.969Z,22.91
2022-10-22T12:09:32.913Z,22.95
2022-10-22T12:12:14.284Z,23.01
2022-10-22T12:14:59.529Z,22.93
2022-10-22T12:17:29.864Z,22.70
2022-10-22T12:20:13.127Z,22.58
2022-10-22T12:22:42.348Z,22.51
2022-10-22T12:25:22.868Z,22.42
2022-10-22T12:27:57.481Z,22.33
2022-10-22T12:30:35.189Z,22.25
2022-10-22T12:33:06.628Z,22.20
2022-10-22T12:35:43.540Z,22.10
2022-10-22T12:38:23.444Z,21.88
2022-10-22T12:40:55.895Z,21.72
2022-10-22T12:43:29.945Z,21.64
2022-10-22T12:45:59.910Z,21.46
2022-10-22T12:48:34.503Z,21.25
2022-10-22T12:51:04.976Z,21.09
2022-10-22T12:53:37.896Z,21.00
2022-10-22T12:56:22.024Z,20.94
2022-10-22T12:59:05.725Z,20.88
2022-10-22T13:01:40.130Z,20.78
2022-10-22T13:04:16.989Z,20.61
2022-10-22T13:06:47.890Z,20.50
2022-10-22T13:09:25.232Z,20.39
2022-10-22T13:12:04.712Z,20.33
2022-10-22T13:14:35.416Z,20.24
2022-10-22T13:17:36.661Z,20.08
2022-10-22T13:20:16.376Z,19.90
2022-10-22T13:22:55.423Z,19.82
2022-10-22T13:25:28.450Z,19.76
2022-10-22T13:28:01.410Z,19.71
2022-10-22T13:30:40.056Z,19.62
2022-10-22T13:33:39.198Z,19.52
2022-10-22T13:36:09.666Z,19.42
2022-10-22T13:38:37.769Z,19.34
2022-10-22T13:41:17.977Z,19.25
2022-10-22T13:43:45.998Z,19.16
2022-10-22T13:46:14.620Z,19.08
2022-10-22T13:48:44.225Z,19.01
2022-10-22T13:51:20.430Z,18.95
2022-10-22T13:53:50.475Z,18.88
2022-10-22T13:56:20.783Z,18.81
2022-10-22T13:58:49.052Z,18.73
2022-10-22T14:01:25.802Z,18.68
2022-10-22T14:03:58.245Z,18.64
2022-10-22T14:06:31.301Z,18.60
2022-10-22T14:09:02.927Z,18.56
2022-10-22T14:11:32.774Z,18.52
2022-10-22T14:14:08.927Z,18.48
2022-10-22T14:16:37.684Z,18.44
2022-10-22T14:19:10.515Z,18.34
2022-10-22T14:21:38.653Z,18.21
2022-10-22T14:24:09.444Z,18.16
2022-10-22T14:26:40.376Z,18.13
2022-10-22T14:29:09.834Z,18.05
2022-10-22T14:34:15.190Z,17.93
2022-10-22T14:36:44.075Z,17.87
2022-10-22T14:39:13.715Z,17.79
2022-10-22T14:41:42.632Z,17.73
2022-10-22T14:44:14.516Z,17.65
2022-10-22T14:46:44.507Z,17.61
2022-10-22T14:49:12.938Z,17.58
2022-10-22T14:51:42.080Z,17.54
2022-10-22T14:54:10.113Z,17.49
2022-10-22T14:56:38.378Z,17.41
2022-10-22T14:59:06.347Z,17.32
2022-10-22T15:01:34.416Z,17.21
2022-10-22T15:04:02.452Z,17.13
2022-10-22T15:06:30.537Z,17.09
2022-10-22T15:08:58.659Z,17.03
2022-10-22T15:11:27.015Z,16.97
2022-10-22T15:13:55.405Z,16.89
2022-10-22T15:16:23.349Z,16.82
2022-10-22T15:18:53.092Z,16.75
2022-10-22T15:21:23.162Z,16.66
2022-10-22T15:23:51.027Z,16.61
2022-10-22T15:26:19.307Z,16.58
2022-10-22T15:28:47.270Z,16.55
2022-10-22T15:31:15.759Z,16.52
2022-10-22T15:33:44.342Z,16.48
2022-10-22T15:36:16.415Z,16.39
2022-10-22T15:38:44.507Z,16.31
2022-10-22T15:41:13.568Z,16.24
2022-10-22T15:43:42.176Z,16.21
2022-10-22T15:46:18.923Z,16.18
2022-10-22T15:48:46.933Z,16.11
2022-10-22T15:51:17.837Z,16.05
2022-10-22T15:53:54.911Z,15.98
2022-10-22T15:56:24.118Z,15.89
2022-10-22T15:59:02.881Z,15.83
2022-10-22T16:01:32.450Z,15.79
2022-10-22T16:04:02.947Z,15.72
2022-10-22T16:06:38.272Z,15.64
2022-10-22T16:09:09.493Z,15.57
2022-10-22T16:11:38.257Z,15.54
2022-10-22T16:14:07.491Z,15.51
2022-10-22T16:16:39.513Z,15.47
2022-10-22T16:19:07.537Z,15.44
2022-10-22T16:21:35.467Z,15.39
2022-10-22T16:24:06.218Z,15.34
2022-10-22T16:26:35.771Z,15.29
2022-10-22T16:29:04.515Z,15.24
2022-10-22T16:31:32.696Z,15.21
2022-10-22T16:34:00.767Z,15.19
2022-10-22T16:36:28.789Z,15.17
2022-10-22T16:38:56.694Z,15.15
2022-10-22T16:41:26.016Z,15.13
2022-10-22T16:43:55.329Z,15.10
2022-10-22T16:46:23.432Z,15.08
2022-10-22T16:48:53.012Z,15.02
2022-10-22T16:51:24.073Z,14.94
2022-10-22T16:53:53.397Z,14.88
2022-10-22T16:56:22.248Z,14.85
2022-10-22T16:58:53.224Z,14.83
2022-10-22T17:01:22.835Z,14.81
2022-10-22T17:03:51.120Z,14.79
2022-10-22T17:06:19.354Z,14.78
2022-10-22T17:08:48.047Z,14.78
2022-10-22T17:11:19.448Z,14.77
2022-10-22T17:13:49.536Z,14.75
2022-10-22T17:16:19.904Z,14.73
2022-10-22T17:18:47.954Z,14.70
2022-10-22T17:21:16.785Z,14.67
2022-10-22T17:23:45.280Z,14.63
2022-10-22T17:26:17.574Z,14.59
2022-10-22T17:28:45.907Z,14.55
2022-10-22T17:31:37.542Z,14.52
2022-10-22T17:34:08.371Z,14.49
2022-10-22T17:36:37.036Z,14.45
2022-10-22T17:39:07.460Z,14.43
2022-10-22T17:41:37.536Z,14.40
2022-10-22T17:44:09.353Z,14.39
2022-10-22T17:46:40.302Z,14.37
2022-10-22T17:49:18.656Z,14.34
2022-10-22T17:51:49.298Z,14.31
2022-10-22T17:54:20.282Z,14.27
2022-10-22T17:56:48.418Z,14.24
2022-10-22T17:59:17.190Z,14.22
2022-10-22T18:01:46.938Z,14.20
2022-10-22T18:04:17.974Z,14.17
2022-10-22T18:06:47.736Z,14.16
2022-10-22T18:09:18.738Z,14.14
2022-10-22T18:11:49.223Z,14.14
2022-10-22T18:14:23.782Z,14.12
2022-10-22T18:16:52.624Z,14.09
2022-10-22T18:19:23.377Z,14.05
2022-10-22T18:21:51.793Z,14.02
2022-10-22T18:24:19.982Z,14.00
2022-10-22T18:26:50.415Z,13.99
2022-10-22T18:29:20.794Z,13.97
2022-10-22T18:31:49.253Z,13.96
2022-10-22T18:34:20.243Z,13.95
2022-10-22T18:36:51.715Z,13.91
2022-10-22T18:39:20.150Z,13.88
2022-10-22T18:41:48.419Z,13.86
2022-10-22T18:44:17.055Z,13.84
2022-10-22T18:46:45.295Z,13.82
2022-10-22T18:49:18.512Z,13.80
2022-10-22T18:51:52.604Z,13.79
2022-10-22T18:54:23.663Z,13.77
2022-10-22T18:56:57.981Z,13.75
2022-10-22T18:59:27.512Z,13.73
2022-10-22T19:01:59.547Z,13.71
2022-10-22T19:04:33.337Z,13.68
2022-10-22T19:07:01.620Z,13.65
2022-10-22T19:09:30.055Z,13.63
2022-10-22T19:11:58.169Z,13.62
2022-10-22T19:14:27.018Z,13.61
2022-10-22T19:16:55.433Z,13.61
2022-10-22T19:19:24.503Z,13.61
2022-10-22T19:21:52.697Z,13.61
2022-10-22T19:24:20.974Z,13.60
2022-10-22T19:26:50.284Z,13.60
2022-10-22T19:29:20.715Z,13.58
2022-10-22T19:31:51.857Z,13.56
2022-10-22T19:34:20.830Z,13.53
2022-10-22T19:36:51.930Z,13.51
2022-10-22T19:39:20.258Z,13.49
2022-10-22T19:41:48.537Z,13.47
2022-10-22T19:44:16.574Z,13.43
2022-10-22T19:46:44.848Z,13.39
2022-10-22T19:49:16.564Z,13.36
2022-10-22T19:51:47.172Z,13.33
2022-10-22T19:54:18.724Z,13.30
2022-10-22T19:56:48.817Z,13.27
2022-10-22T19:59:17.854Z,13.23
2022-10-22T20:01:46.400Z,13.20
2022-10-22T20:04:16.893Z,13.18
2022-10-22T20:06:45.513Z,13.17
2022-10-22T20:09:14.128Z,13.15
2022-10-22T20:11:42.356Z,13.13
2022-10-22T20:14:10.490Z,13.12
2022-10-22T20:16:39.354Z,13.10
2022-10-22T20:19:08.911Z,13.08
2022-10-22T20:21:37.540Z,13.06
2022-10-22T20:24:05.821Z,13.04
2022-10-22T20:26:34.666Z,13.02
2022-10-22T20:29:02.884Z,13.01
2022-10-22T20:31:33.011Z,13.01
2022-10-22T20:34:01.895Z,12.99
2022-10-22T20:36:31.803Z,12.95
2022-10-22T20:39:06.454Z,12.92
2022-10-22T20:41:38.043Z,12.90
2022-10-22T20:44:09.997Z,12.88
2022-10-22T20:46:38.241Z,12.85
2022-10-22T20:49:10.677Z,12.81
2022-10-22T20:51:39.270Z,12.79
2022-10-22T20:54:09.099Z,12.77
2022-10-22T20:56:39.390Z,12.76
2022-10-22T20:59:11.218Z,12.74
2022-10-22T21:01:42.622Z,12.73
2022-10-22T21:04:11.192Z,12.72
2022-10-22T21:06:41.440Z,12.71
2022-10-22T21:09:11.978Z,12.69
2022-10-22T21:11:41.706Z,12.68
2022-10-22T21:14:12.251Z,12.67
2022-10-22T21:16:45.511Z,12.65
2022-10-22T21:19:13.465Z,12.62
2022-10-22T21:21:41.422Z,12.59
2022-10-22T21:24:09.683Z,12.56
2022-10-22T21:26:39.209Z,12.53
2022-10-22T21:29:07.796Z,12.49
2022-10-22T21:31:35.962Z,12.47
2022-10-22T21:34:04.005Z,12.45
2022-10-22T21:36:31.977Z,12.42
2022-10-22T21:39:01.973Z,12.40
2022-10-22T21:41:30.109Z,12.38
2022-10-22T21:43:58.791Z,12.36
2022-10-22T21:46:28.180Z,12.32
2022-10-22T21:49:02.124Z,12.29
2022-10-22T21:51:33.057Z,12.26
2022-10-22T21:54:01.956Z,12.24
2022-10-22T21:56:33.199Z,12.22
2022-10-22T21:59:03.515Z,12.21
2022-10-22T22:01:32.379Z,12.20
2022-10-22T22:04:00.460Z,12.18
2022-10-22T22:06:33.379Z,12.18
2022-10-22T22:09:03.877Z,12.17
2022-10-22T22:11:32.609Z,12.14
2022-10-22T22:14:00.576Z,12.13
2022-10-22T22:16:31.791Z,12.11
2022-10-22T22:19:02.164Z,12.09
2022-10-22T22:21:30.973Z,12.08
2022-10-22T22:23:58.935Z,12.07
2022-10-22T22:26:30.074Z,12.05
2022-10-22T22:28:59.808Z,12.05
2022-10-22T22:31:30.386Z,12.04
2022-10-22T22:34:03.666Z,12.03
2022-10-22T22:36:37.925Z,12.01
2022-10-22T22:39:08.008Z,11.99
2022-10-22T22:41:35.986Z,11.96
2022-10-22T22:44:04.493Z,11.93
2022-10-22T22:46:32.679Z,11.91
2022-10-22T22:49:00.908Z,11.90
2022-10-22T22:51:28.905Z,11.90
2022-10-22T22:54:01.132Z,11.89
2022-10-22T22:56:31.673Z,11.90
2022-10-22T22:58:59.577Z,11.90
2022-10-22T23:01:32.992Z,11.89
2022-10-22T23:04:23.850Z,11.88
2022-10-22T23:06:52.271Z,11.88
2022-10-22T23:11:53.903Z,11.86
2022-10-22T23:14:21.979Z,11.86
2022-10-22T23:16:52.653Z,11.85
2022-10-22T23:19:22.840Z,11.84
2022-10-22T23:21:53.340Z,11.82
2022-10-22T23:24:27.046Z,11.80
2022-10-22T23:26:56.225Z,11.79
2022-10-22T23:29:29.551Z,11.76
2022-10-22T23:32:02.331Z,11.74
2022-10-22T23:34:32.090Z,11.72
2022-10-22T23:37:00.115Z,11.72
2022-10-22T23:39:28.868Z,11.70
2022-10-22T23:41:57.315Z,11.69
2022-10-22T23:44:25.988Z,11.68
2022-10-22T23:46:55.246Z,11.67
2022-10-22T23:49:23.170Z,11.66
2022-10-22T23:51:51.076Z,11.66
2022-10-22T23:54:19.209Z,11.66
2022-10-22T23:56:47.282Z,11.67
2022-10-22T23:59:16.115Z,11.67
